createdAt,value
2023-05-02T15:01:08.108Z,101359.61
2023-05-02T15:04:36.616Z,101362.34
2023-05-02T15:08:08.803Z,101365.19
2023-05-02T15:11:16.719Z,101374.82
2023-05-02T15:14:20.198Z,101383.39
2023-05-02T15:17:40.952Z,101389.29
2023-05-02T15:21:39.253Z,101399.05
2023-05-02T15:24:13.425Z,101402.57
2023-05-02T15:27:15.508Z,101408.35
2023-05-02T15:29:53.087Z,101415.16
2023-05-02T15:33:22.316Z,101416.84
2023-05-02T15:36:45.144Z,101423.85
2023-05-02T15:40:17.421Z,101422.94
2023-05-02T15:43:23.084Z,101426.31
2023-05-02T15:46:17.606Z,101426.20
2023-05-02T15:49:08.247Z,101437.14
2023-05-02T15:52:08.736Z,101442.84
2023-05-02T15:55:25.954Z,101447.02
2023-05-02T15:58:50.010Z,101448.45
2023-05-02T16:02:26.805Z,101453.79
2023-05-02T16:06:06.975Z,101460.73
2023-05-02T16:09:38.908Z,101467.55
2023-05-02T16:12:30.514Z,101468.02
2023-05-02T16:15:37.360Z,101468.95
2023-05-02T16:19:30.833Z,101473.23
2023-05-02T16:23:23.990Z,101479.65
2023-05-02T16:26:57.660Z,101479.45
2023-05-02T16:30:49.987Z,101482.88
2023-05-02T16:34:38.013Z,101487.00
2023-05-02T16:38:47.204Z,101489.09
2023-05-02T16:42:25.464Z,101493.98
2023-05-02T16:46:27.789Z,101493.89
2023-05-02T16:49:24.751Z,101495.21
2023-05-02T16:53:07.131Z,101496.56
2023-05-02T16:56:20.825Z,101500.48
2023-05-02T16:59:40.180Z,101501.80
2023-05-02T17:03:16.235Z,101500.42
2023-05-02T17:06:23.171Z,101501.55
2023-05-02T17:09:38.432Z,101506.59
2023-05-02T17:12:37.490Z,101509.95
2023-05-02T17:16:10.484Z,101514.30
2023-05-02T17:19:41.989Z,101519.66
2023-05-02T17:22:56.548Z,101521.19
2023-05-02T17:25:51.612Z,101520.30
2023-05-02T17:28:58.245Z,101519.84
2023-05-02T17:32:06.191Z,101521.10
2023-05-02T17:35:50.140Z,101521.68
2023-05-02T17:38:39.375Z,101525.16
2023-05-02T17:41:56.421Z,101526.77
2023-05-02T17:45:36.414Z,101527.78
2023-05-02T17:48:40.595Z,101531.45
2023-05-02T17:52:19.148Z,101531.41
2023-05-02T17:55:27.243Z,101540.42
2023-05-02T17:58:21.779Z,101543.55
2023-05-02T18:01:02.818Z,101546.29
2023-05-02T18:03:40.299Z,101546.78
2023-05-02T18:07:23.996Z,101548.05
2023-05-02T18:10:28.697Z,101553.29
2023-05-02T18:13:39.767Z,101560.23
2023-05-02T18:16:34.200Z,101564.11
2023-05-02T18:19:23.744Z,101567.49
2023-05-02T18:22:11.987Z,101573.59
2023-05-02T18:25:20.946Z,101578.09
2023-05-02T18:28:24.355Z,101578.87
2023-05-02T18:31:43.216Z,101582.52
2023-05-02T18:35:15.693Z,101588.67
2023-05-02T18:38:14.113Z,101591.94
2023-05-02T18:41:05.521Z,101599.41
2023-05-02T18:44:44.726Z,101603.67
2023-05-02T18:47:38.242Z,101603.08
2023-05-02T18:50:26.247Z,101603.46
2023-05-02T18:53:12.320Z,101605.51
2023-05-02T18:55:58.556Z,101612.17
2023-05-02T18:59:15.533Z,101619.25
2023-05-02T19:02:24.954Z,101618.36
2023-05-02T19:05:15.820Z,101622.38
2023-05-02T19:08:44.083Z,101620.77
2023-05-02T19:11:45.041Z,101618.66
2023-05-02T19:14:54.975Z,101621.39
2023-05-02T19:17:27.884Z,101624.10
2023-05-02T19:20:21.570Z,101630.64
2023-05-02T19:24:02.002Z,101635.26
2023-05-02T19:27:24.034Z,101634.98
2023-05-02T19:30:41.022Z,101634.95
2023-05-02T19:34:04.283Z,101637.83
2023-05-02T19:37:46.708Z,101641.85
2023-05-02T19:40:57.505Z,101644.67
2023-05-02T19:44:02.571Z,101645.61
2023-05-02T19:47:44.036Z,101649.30
2023-05-02T19:50:35.739Z,101648.10
2023-05-02T19:53:41.626Z,101652.14
2023-05-02T19:56:55.580Z,101658.95
2023-05-02T20:00:34.436Z,101659.70
2023-05-02T20:04:00.357Z,101659.73
2023-05-02T20:06:45.085Z,101663.92
2023-05-02T20:10:34.446Z,101660.48
2023-05-02T20:13:54.612Z,101661.20
2023-05-02T20:17:14.125Z,101665.71
2023-05-02T20:20:11.620Z,101666.77
2023-05-02T20:23:17.018Z,101668.56
2023-05-02T20:26:21.107Z,101667.20
2023-05-02T20:29:36.037Z,101666.52
2023-05-02T20:33:14.759Z,101673.32
2023-05-02T20:36:45.490Z,101676.84
2023-05-02T20:40:39.502Z,101676.88
2023-05-02T20:43:32.796Z,101680.88
2023-05-02T20:47:42.496Z,101679.16
2023-05-02T20:50:43.440Z,101686.98
2023-05-02T20:53:57.257Z,101688.23
2023-05-02T20:57:06.208Z,101686.67
2023-05-02T21:00:56.042Z,101687.38
2023-05-02T21:04:28.348Z,101688.96
2023-05-02T21:07:35.917Z,101687.58
2023-05-02T21:11:13.450Z,101689.15
2023-05-02T21:14:35.970Z,101694.17
2023-05-02T21:21:14.092Z,101695.04
2023-05-02T21:24:07.936Z,101700.91
2023-05-02T21:27:09.246Z,101702.50
2023-05-02T21:30:28.802Z,101700.25
2023-05-02T21:33:52.630Z,101698.34
2023-05-02T21:37:01.269Z,101700.92
2023-05-02T21:40:46.994Z,101701.09
2023-05-02T21:43:52.702Z,101702.48
2023-05-02T21:47:21.566Z,101704.89
2023-05-02T21:51:14.176Z,101701.61
2023-05-02T21:54:54.445Z,101700.21
2023-05-02T21:58:43.636Z,101701.13
2023-05-02T22:02:09.354Z,101701.45
2023-05-02T22:05:13.993Z,101707.50
2023-05-02T22:08:46.118Z,101709.58
2023-05-02T22:12:26.891Z,101708.55
2023-05-02T22:15:51.234Z,101708.02
2023-05-02T22:19:28.051Z,101705.77
2023-05-02T22:22:34.170Z,101712.02
2023-05-02T22:25:50.503Z,101715.30
2023-05-02T22:28:36.081Z,101714.27
2023-05-02T22:31:50.161Z,101717.23
2023-05-02T22:35:39.818Z,101718.27
2023-05-02T22:38:37.086Z,101719.15
2023-05-02T22:42:01.742Z,101716.04
2023-05-02T22:45:06.719Z,101715.86
2023-05-02T22:48:59.140Z,101713.97
2023-05-02T22:52:38.627Z,101716.59
2023-05-02T22:55:35.217Z,101715.71
2023-05-02T22:58:23.751Z,101720.21
2023-05-02T23:01:31.914Z,101720.57
2023-05-02T23:04:59.872Z,101715.38
2023-05-02T23:08:10.669Z,101713.30
2023-05-02T23:11:18.265Z,101712.45
2023-05-02T23:14:30.362Z,101714.17
2023-05-02T23:17:29.945Z,101712.44
2023-05-02T23:20:30.456Z,101712.27
2023-05-02T23:23:42.311Z,101712.42
2023-05-02T23:26:28.919Z,101714.15
2023-05-02T23:29:44.385Z,101716.58
2023-05-02T23:33:04.202Z,101713.45
2023-05-02T23:36:09.482Z,101711.92
2023-05-02T23:39:35.787Z,101711.40
2023-05-02T23:42:40.141Z,101708.80
2023-05-02T23:46:15.793Z,101708.98
2023-05-02T23:49:54.515Z,101709.51
2023-05-02T23:53:09.178Z,101710.71
2023-05-02T23:56:03.506Z,101705.35
2023-05-02T23:59:46.035Z,101701.73
